sensor_id;sensor_type;location;lat;lon;timestamp;P1;durP1;ratioP1;P2;durP2;ratioP2
31730;SDS011;18310;55.586;12.286;2023-08-17T00:03:57;2.53;;;1.08;;
31730;SDS011;18310;55.586;12.286;2023-08-17T00:07:00;4.22;;;1.05;;
31730;SDS011;18310;55.586;12.286;2023-08-17T00:11:02;3.17;;;1.27;;
31730;SDS011;18310;55.586;12.286;2023-08-17T00:14:06;2.83;;;0.90;;
31730;SDS011;18310;55.586;12.286;2023-08-17T00:17:09;5.78;;;1.48;;
31730;SDS011;18310;55.586;12.286;2023-08-17T00:20:12;2.80;;;1.15;;
31730;SDS011;18310;55.586;12.286;2023-08-17T00:23:15;7.23;;;1.77;;
31730;SDS011;18310;55.586;12.286;2023-08-17T00:26:20;3.20;;;0.97;;
31730;SDS011;18310;55.586;12.286;2023-08-17T00:29:23;2.92;;;1.10;;
31730;SDS011;18310;55.586;12.286;2023-08-17T00:32:26;3.22;;;1.02;;
31730;SDS011;18310;55.586;12.286;2023-08-17T00:35:29;5.35;;;1.40;;
31730;SDS011;18310;55.586;12.286;2023-08-17T00:38:32;3.65;;;1.30;;
31730;SDS011;18310;55.586;12.286;2023-08-17T00:41:36;2.58;;;0.93;;
31730;SDS011;18310;55.586;12.286;2023-08-17T00:44:39;2.10;;;0.95;;
31730;SDS011;18310;55.586;12.286;2023-08-17T00:47:43;2.15;;;0.68;;
31730;SDS011;18310;55.586;12.286;2023-08-17T00:50:46;2.90;;;1.02;;
31730;SDS011;18310;55.586;12.286;2023-08-17T00:53:51;3.78;;;1.17;;
31730;SDS011;18310;55.586;12.286;2023-08-17T00:56:56;2.90;;;1.10;;
31730;SDS011;18310;55.586;12.286;2023-08-17T01:00:00;5.85;;;1.15;;
31730;SDS011;18310;55.586;12.286;2023-08-17T01:03:07;3.97;;;1.52;;
31730;SDS011;18310;55.586;12.286;2023-08-17T01:06:10;1.97;;;0.90;;
31730;SDS011;18310;55.586;12.286;2023-08-17T01:09:13;6.77;;;1.10;;
31730;SDS011;18310;55.586;12.286;2023-08-17T01:12:19;4.68;;;0.93;;
31730;SDS011;18310;55.586;12.286;2023-08-17T01:15:31;4.57;;;0.98;;
31730;SDS011;18310;55.586;12.286;2023-08-17T01:18:37;3.55;;;1.20;;
31730;SDS011;18310;55.586;12.286;2023-08-17T01:21:44;6.30;;;1.00;;
31730;SDS011;18310;55.586;12.286;2023-08-17T01:24:55;2.80;;;0.90;;
31730;SDS011;18310;55.586;12.286;2023-08-17T01:28:00;3.28;;;1.05;;
31730;SDS011;18310;55.586;12.286;2023-08-17T01:31:03;6.00;;;1.40;;
31730;SDS011;18310;55.586;12.286;2023-08-17T01:34:13;3.40;;;1.35;;
31730;SDS011;18310;55.586;12.286;2023-08-17T01:39:19;3.22;;;1.08;;
31730;SDS011;18310;55.586;12.286;2023-08-17T01:42:26;3.22;;;1.10;;
31730;SDS011;18310;55.586;12.286;2023-08-17T01:48:33;2.80;;;0.85;;
31730;SDS011;18310;55.586;12.286;2023-08-17T01:51:38;3.72;;;1.20;;
31730;SDS011;18310;55.586;12.286;2023-08-17T01:54:42;6.28;;;1.60;;
31730;SDS011;18310;55.586;12.286;2023-08-17T01:57:46;4.63;;;1.67;;
31730;SDS011;18310;55.586;12.286;2023-08-17T02:00:49;5.38;;;1.45;;
31730;SDS011;18310;55.586;12.286;2023-08-17T02:03:52;3.53;;;1.40;;
31730;SDS011;18310;55.586;12.286;2023-08-17T02:06:56;3.93;;;1.63;;
31730;SDS011;18310;55.586;12.286;2023-08-17T02:10:00;5.35;;;1.23;;
31730;SDS011;18310;55.586;12.286;2023-08-17T02:13:03;3.97;;;1.48;;
31730;SDS011;18310;55.586;12.286;2023-08-17T02:16:18;2.90;;;1.10;;
31730;SDS011;18310;55.586;12.286;2023-08-17T02:19:21;3.22;;;1.17;;
31730;SDS011;18310;55.586;12.286;2023-08-17T02:22:25;3.37;;;1.27;;
31730;SDS011;18310;55.586;12.286;2023-08-17T02:25:29;3.67;;;1.20;;
31730;SDS011;18310;55.586;12.286;2023-08-17T02:28:37;2.85;;;1.20;;
31730;SDS011;18310;55.586;12.286;2023-08-17T02:31:41;3.80;;;1.20;;
31730;SDS011;18310;55.586;12.286;2023-08-17T02:34:44;2.05;;;0.82;;
31730;SDS011;18310;55.586;12.286;2023-08-17T02:37:47;2.40;;;0.93;;
31730;SDS011;18310;55.586;12.286;2023-08-17T02:40:51;2.50;;;1.30;;
31730;SDS011;18310;55.586;12.286;2023-08-17T02:43:55;4.85;;;1.15;;
31730;SDS011;18310;55.586;12.286;2023-08-17T02:46:58;4.33;;;1.20;;
31730;SDS011;18310;55.586;12.286;2023-08-17T02:50:01;2.78;;;0.88;;
31730;SDS011;18310;55.586;12.286;2023-08-17T02:53:29;3.13;;;1.52;;
31730;SDS011;18310;55.586;12.286;2023-08-17T02:56:32;3.00;;;1.05;;
31730;SDS011;18310;55.586;12.286;2023-08-17T02:59:35;2.15;;;1.17;;
31730;SDS011;18310;55.586;12.286;2023-08-17T03:02:39;3.92;;;1.20;;
31730;SDS011;18310;55.586;12.286;2023-08-17T03:05:42;3.10;;;1.10;;
31730;SDS011;18310;55.586;12.286;2023-08-17T03:08:47;2.40;;;1.07;;
31730;SDS011;18310;55.586;12.286;2023-08-17T03:11:50;3.67;;;1.13;;
31730;SDS011;18310;55.586;12.286;2023-08-17T03:14:54;5.28;;;1.20;;
31730;SDS011;18310;55.586;12.286;2023-08-17T03:17:57;2.10;;;0.90;;
31730;SDS011;18310;55.586;12.286;2023-08-17T03:21:00;2.70;;;1.23;;
31730;SDS011;18310;55.586;12.286;2023-08-17T03:24:05;3.70;;;1.10;;
31730;SDS011;18310;55.586;12.286;2023-08-17T03:27:10;4.15;;;1.33;;
31730;SDS011;18310;55.586;12.286;2023-08-17T03:30:13;2.17;;;1.17;;
31730;SDS011;18310;55.586;12.286;2023-08-17T03:33:16;3.63;;;1.67;;
31730;SDS011;18310;55.586;12.286;2023-08-17T03:36:19;3.72;;;1.35;;
31730;SDS011;18310;55.586;12.286;2023-08-17T03:39:24;4.33;;;1.50;;
31730;SDS011;18310;55.586;12.286;2023-08-17T03:42:27;4.60;;;1.48;;
31730;SDS011;18310;55.586;12.286;2023-08-17T03:45:31;3.72;;;1.20;;
31730;SDS011;18310;55.586;12.286;2023-08-17T03:48:34;3.45;;;1.60;;
31730;SDS011;18310;55.586;12.286;2023-08-17T03:51:38;3.10;;;1.60;;
31730;SDS011;18310;55.586;12.286;2023-08-17T03:54:42;4.05;;;1.50;;
31730;SDS011;18310;55.586;12.286;2023-08-17T03:57:45;4.85;;;1.25;;
31730;SDS011;18310;55.586;12.286;2023-08-17T04:00:49;2.95;;;1.10;;
31730;SDS011;18310;55.586;12.286;2023-08-17T04:04:15;6.65;;;1.92;;
31730;SDS011;18310;55.586;12.286;2023-08-17T04:07:20;3.65;;;1.20;;
31730;SDS011;18310;55.586;12.286;2023-08-17T04:10:24;3.30;;;1.45;;
31730;SDS011;18310;55.586;12.286;2023-08-17T04:13:27;5.53;;;1.40;;
31730;SDS011;18310;55.586;12.286;2023-08-17T04:16:31;4.28;;;1.70;;
31730;SDS011;18310;55.586;12.286;2023-08-17T04:19:36;9.32;;;2.50;;
31730;SDS011;18310;55.586;12.286;2023-08-17T04:22:39;4.03;;;1.42;;
31730;SDS011;18310;55.586;12.286;2023-08-17T04:26:02;6.97;;;1.90;;
31730;SDS011;18310;55.586;12.286;2023-08-17T04:29:05;7.50;;;1.90;;
31730;SDS011;18310;55.586;12.286;2023-08-17T04:32:13;7.60;;;1.30;;
31730;SDS011;18310;55.586;12.286;2023-08-17T04:35:17;4.65;;;1.30;;
31730;SDS011;18310;55.586;12.286;2023-08-17T04:38:20;4.57;;;1.40;;
31730;SDS011;18310;55.586;12.286;2023-08-17T04:41:25;6.40;;;1.50;;
31730;SDS011;18310;55.586;12.286;2023-08-17T04:44:28;4.53;;;1.00;;
31730;SDS011;18310;55.586;12.286;2023-08-17T04:47:31;4.57;;;1.03;;
31730;SDS011;18310;55.586;12.286;2023-08-17T04:50:34;3.27;;;1.20;;
31730;SDS011;18310;55.586;12.286;2023-08-17T04:53:38;6.78;;;1.55;;
31730;SDS011;18310;55.586;12.286;2023-08-17T04:56:42;5.53;;;1.70;;
31730;SDS011;18310;55.586;12.286;2023-08-17T04:59:46;7.65;;;1.55;;
31730;SDS011;18310;55.586;12.286;2023-08-17T05:02:49;4.15;;;1.45;;
31730;SDS011;18310;55.586;12.286;2023-08-17T05:05:53;4.13;;;1.55;;
31730;SDS011;18310;55.586;12.286;2023-08-17T05:08:56;4.00;;;1.53;;
31730;SDS011;18310;55.586;12.286;2023-08-17T05:12:01;4.70;;;1.48;;
31730;SDS011;18310;55.586;12.286;2023-08-17T05:15:05;3.08;;;1.17;;
31730;SDS011;18310;55.586;12.286;2023-08-17T05:18:12;4.55;;;1.35;;
31730;SDS011;18310;55.586;12.286;2023-08-17T05:21:15;2.50;;;0.98;;
31730;SDS011;18310;55.586;12.286;2023-08-17T05:24:18;3.20;;;0.93;;
31730;SDS011;18310;55.586;12.286;2023-08-17T05:27:23;2.05;;;0.63;;
31730;SDS011;18310;55.586;12.286;2023-08-17T05:30:27;2.92;;;0.80;;
31730;SDS011;18310;55.586;12.286;2023-08-17T05:33:30;3.03;;;1.00;;
31730;SDS011;18310;55.586;12.286;2023-08-17T05:36:33;2.72;;;0.90;;
31730;SDS011;18310;55.586;12.286;2023-08-17T05:39:36;7.53;;;1.00;;
31730;SDS011;18310;55.586;12.286;2023-08-17T05:42:42;4.40;;;0.75;;
31730;SDS011;18310;55.586;12.286;2023-08-17T05:45:46;2.92;;;0.90;;
31730;SDS011;18310;55.586;12.286;2023-08-17T05:48:49;5.68;;;1.20;;
31730;SDS011;18310;55.586;12.286;2023-08-17T05:51:52;3.95;;;1.00;;
31730;SDS011;18310;55.586;12.286;2023-08-17T05:54:55;2.83;;;0.93;;
31730;SDS011;18310;55.586;12.286;2023-08-17T05:58:00;10.88;;;0.82;;
31730;SDS011;18310;55.586;12.286;2023-08-17T06:01:06;3.70;;;0.98;;
31730;SDS011;18310;55.586;12.286;2023-08-17T06:04:10;3.55;;;0.82;;
31730;SDS011;18310;55.586;12.286;2023-08-17T06:07:13;4.67;;;1.30;;
31730;SDS011;18310;55.586;12.286;2023-08-17T06:10:16;3.90;;;1.03;;
31730;SDS011;18310;55.586;12.286;2023-08-17T06:13:21;2.72;;;0.73;;
31730;SDS011;18310;55.586;12.286;2023-08-17T06:16:24;5.63;;;0.70;;
31730;SDS011;18310;55.586;12.286;2023-08-17T06:19:27;3.83;;;0.90;;
31730;SDS011;18310;55.586;12.286;2023-08-17T06:22:30;3.97;;;1.05;;
31730;SDS011;18310;55.586;12.286;2023-08-17T06:25:33;2.43;;;0.70;;
31730;SDS011;18310;55.586;12.286;2023-08-17T06:28:38;2.87;;;0.80;;
31730;SDS011;18310;55.586;12.286;2023-08-17T06:31:41;3.25;;;0.80;;
31730;SDS011;18310;55.586;12.286;2023-08-17T06:34:45;3.20;;;0.82;;
31730;SDS011;18310;55.586;12.286;2023-08-17T06:37:48;2.75;;;0.60;;
31730;SDS011;18310;55.586;12.286;2023-08-17T06:40:53;2.35;;;0.70;;
31730;SDS011;18310;55.586;12.286;2023-08-17T06:43:57;2.23;;;0.70;;
31730;SDS011;18310;55.586;12.286;2023-08-17T06:47:22;4.25;;;0.90;;
31730;SDS011;18310;55.586;12.286;2023-08-17T06:50:26;3.22;;;0.80;;
31730;SDS011;18310;55.586;12.286;2023-08-17T06:53:30;8.00;;;0.85;;
31730;SDS011;18310;55.586;12.286;2023-08-17T06:56:33;1.63;;;0.60;;
31730;SDS011;18310;55.586;12.286;2023-08-17T06:59:37;1.95;;;0.60;;
31730;SDS011;18310;55.586;12.286;2023-08-17T07:02:41;2.30;;;0.50;;
31730;SDS011;18310;55.586;12.286;2023-08-17T07:05:56;8.10;;;0.82;;
31730;SDS011;18310;55.586;12.286;2023-08-17T07:09:00;1.58;;;0.50;;
31730;SDS011;18310;55.586;12.286;2023-08-17T07:12:05;11.43;;;0.75;;
31730;SDS011;18310;55.586;12.286;2023-08-17T07:15:10;3.88;;;0.75;;
31730;SDS011;18310;55.586;12.286;2023-08-17T07:18:16;2.28;;;0.47;;
31730;SDS011;18310;55.586;12.286;2023-08-17T07:21:19;2.40;;;0.63;;
31730;SDS011;18310;55.586;12.286;2023-08-17T07:24:23;3.67;;;0.97;;
31730;SDS011;18310;55.586;12.286;2023-08-17T07:27:49;4.07;;;0.90;;
31730;SDS011;18310;55.586;12.286;2023-08-17T07:30:53;2.22;;;0.90;;
31730;SDS011;18310;55.586;12.286;2023-08-17T07:33:56;5.90;;;0.82;;
31730;SDS011;18310;55.586;12.286;2023-08-17T07:36:59;3.63;;;0.95;;
31730;SDS011;18310;55.586;12.286;2023-08-17T07:40:03;2.75;;;0.90;;
31730;SDS011;18310;55.586;12.286;2023-08-17T07:43:08;3.83;;;0.82;;
31730;SDS011;18310;55.586;12.286;2023-08-17T07:46:11;5.00;;;1.13;;
31730;SDS011;18310;55.586;12.286;2023-08-17T07:49:14;2.22;;;0.90;;
31730;SDS011;18310;55.586;12.286;2023-08-17T07:52:32;1.88;;;0.60;;
31730;SDS011;18310;55.586;12.286;2023-08-17T07:55:35;2.37;;;0.70;;
31730;SDS011;18310;55.586;12.286;2023-08-17T07:58:40;2.55;;;0.65;;
31730;SDS011;18310;55.586;12.286;2023-08-17T08:01:43;3.33;;;0.93;;
31730;SDS011;18310;55.586;12.286;2023-08-17T08:04:46;4.28;;;0.73;;
31730;SDS011;18310;55.586;12.286;2023-08-17T08:07:50;4.07;;;0.80;;
31730;SDS011;18310;55.586;12.286;2023-08-17T08:10:53;3.50;;;1.02;;
31730;SDS011;18310;55.586;12.286;2023-08-17T08:13:58;2.15;;;0.85;;
31730;SDS011;18310;55.586;12.286;2023-08-17T08:17:01;4.85;;;1.13;;
31730;SDS011;18310;55.586;12.286;2023-08-17T08:20:05;2.53;;;0.80;;
31730;SDS011;18310;55.586;12.286;2023-08-17T08:23:09;5.10;;;1.13;;
31730;SDS011;18310;55.586;12.286;2023-08-17T08:26:13;4.35;;;1.45;;
31730;SDS011;18310;55.586;12.286;2023-08-17T08:29:17;2.67;;;0.87;;
31730;SDS011;18310;55.586;12.286;2023-08-17T08:32:21;4.57;;;1.00;;
31730;SDS011;18310;55.586;12.286;2023-08-17T08:35:24;3.40;;;1.33;;
31730;SDS011;18310;55.586;12.286;2023-08-17T08:38:27;5.00;;;0.80;;
31730;SDS011;18310;55.586;12.286;2023-08-17T08:41:30;5.60;;;0.80;;
31730;SDS011;18310;55.586;12.286;2023-08-17T08:47:39;4.88;;;1.00;;
31730;SDS011;18310;55.586;12.286;2023-08-17T08:50:50;3.03;;;0.88;;
31730;SDS011;18310;55.586;12.286;2023-08-17T08:53:59;6.30;;;0.82;;
31730;SDS011;18310;55.586;12.286;2023-08-17T08:57:06;6.75;;;0.80;;
31730;SDS011;18310;55.586;12.286;2023-08-17T09:00:16;3.20;;;1.10;;
31730;SDS011;18310;55.586;12.286;2023-08-17T09:03:20;2.97;;;1.00;;
31730;SDS011;18310;55.586;12.286;2023-08-17T09:06:24;2.92;;;0.80;;
31730;SDS011;18310;55.586;12.286;2023-08-17T09:09:29;2.33;;;0.80;;
31730;SDS011;18310;55.586;12.286;2023-08-17T09:12:33;6.28;;;1.25;;
31730;SDS011;18310;55.586;12.286;2023-08-17T09:15:43;2.63;;;0.88;;
31730;SDS011;18310;55.586;12.286;2023-08-17T09:18:46;3.33;;;0.82;;
31730;SDS011;18310;55.586;12.286;2023-08-17T09:24:55;3.25;;;0.50;;
31730;SDS011;18310;55.586;12.286;2023-08-17T09:28:06;2.53;;;0.60;;
31730;SDS011;18310;55.586;12.286;2023-08-17T09:31:14;4.65;;;0.70;;
31730;SDS011;18310;55.586;12.286;2023-08-17T09:34:17;2.38;;;0.70;;
31730;SDS011;18310;55.586;12.286;2023-08-17T09:37:22;3.60;;;1.10;;
31730;SDS011;18310;55.586;12.286;2023-08-17T09:40:26;5.65;;;1.08;;
31730;SDS011;18310;55.586;12.286;2023-08-17T09:43:29;8.35;;;1.20;;
31730;SDS011;18310;55.586;12.286;2023-08-17T09:46:35;2.72;;;0.90;;
31730;SDS011;18310;55.586;12.286;2023-08-17T09:49:38;5.13;;;1.30;;
31730;SDS011;18310;55.586;12.286;2023-08-17T09:52:41;2.77;;;0.90;;
31730;SDS011;18310;55.586;12.286;2023-08-17T09:55:52;5.78;;;1.40;;
31730;SDS011;18310;55.586;12.286;2023-08-17T09:58:56;4.75;;;0.80;;
31730;SDS011;18310;55.586;12.286;2023-08-17T10:01:59;12.32;;;2.65;;
31730;SDS011;18310;55.586;12.286;2023-08-17T10:05:03;3.47;;;0.82;;
31730;SDS011;18310;55.586;12.286;2023-08-17T10:08:09;3.00;;;0.70;;
31730;SDS011;18310;55.586;12.286;2023-08-17T10:11:16;5.50;;;1.77;;
31730;SDS011;18310;55.586;12.286;2023-08-17T10:14:23;4.95;;;1.40;;
31730;SDS011;18310;55.586;12.286;2023-08-17T10:17:33;4.60;;;1.08;;
31730;SDS011;18310;55.586;12.286;2023-08-17T10:20:41;2.35;;;0.90;;
31730;SDS011;18310;55.586;12.286;2023-08-17T10:23:48;3.47;;;1.10;;
31730;SDS011;18310;55.586;12.286;2023-08-17T10:26:55;9.65;;;1.13;;
31730;SDS011;18310;55.586;12.286;2023-08-17T10:29:59;3.63;;;0.98;;
31730;SDS011;18310;55.586;12.286;2023-08-17T10:33:10;5.15;;;1.05;;
31730;SDS011;18310;55.586;12.286;2023-08-17T10:36:13;5.13;;;0.80;;
31730;SDS011;18310;55.586;12.286;2023-08-17T10:39:17;3.90;;;1.35;;
31730;SDS011;18310;55.586;12.286;2023-08-17T10:42:32;3.03;;;1.10;;
31730;SDS011;18310;55.586;12.286;2023-08-17T10:45:37;5.63;;;1.05;;
31730;SDS011;18310;55.586;12.286;2023-08-17T10:51:59;2.15;;;1.00;;
31730;SDS011;18310;55.586;12.286;2023-08-17T10:55:05;3.58;;;0.82;;
31730;SDS011;18310;55.586;12.286;2023-08-17T10:58:11;4.15;;;0.75;;
31730;SDS011;18310;55.586;12.286;2023-08-17T11:01:27;3.40;;;1.20;;
31730;SDS011;18310;55.586;12.286;2023-08-17T11:04:34;4.13;;;1.27;;
31730;SDS011;18310;55.586;12.286;2023-08-17T11:07:40;2.05;;;0.65;;
31730;SDS011;18310;55.586;12.286;2023-08-17T11:10:48;3.63;;;0.70;;
31730;SDS011;18310;55.586;12.286;2023-08-17T11:14:00;4.07;;;0.65;;
31730;SDS011;18310;55.586;12.286;2023-08-17T11:17:03;2.88;;;0.77;;
31730;SDS011;18310;55.586;12.286;2023-08-17T11:23:15;4.40;;;0.95;;
31730;SDS011;18310;55.586;12.286;2023-08-17T11:26:19;4.32;;;0.88;;
31730;SDS011;18310;55.586;12.286;2023-08-17T11:29:24;8.52;;;0.88;;
31730;SDS011;18310;55.586;12.286;2023-08-17T11:32:27;6.13;;;0.98;;
31730;SDS011;18310;55.586;12.286;2023-08-17T11:35:31;2.50;;;0.77;;
31730;SDS011;18310;55.586;12.286;2023-08-17T11:38:35;2.40;;;0.80;;
31730;SDS011;18310;55.586;12.286;2023-08-17T11:41:39;3.95;;;1.30;;
31730;SDS011;18310;55.586;12.286;2023-08-17T11:44:44;2.30;;;1.02;;
31730;SDS011;18310;55.586;12.286;2023-08-17T11:47:48;3.85;;;1.40;;
31730;SDS011;18310;55.586;12.286;2023-08-17T11:50:52;4.18;;;1.30;;
31730;SDS011;18310;55.586;12.286;2023-08-17T11:53:58;4.25;;;1.08;;
31730;SDS011;18310;55.586;12.286;2023-08-17T11:57:01;3.28;;;1.05;;
31730;SDS011;18310;55.586;12.286;2023-08-17T12:00:08;7.03;;;1.58;;
31730;SDS011;18310;55.586;12.286;2023-08-17T12:03:13;2.85;;;1.17;;
31730;SDS011;18310;55.586;12.286;2023-08-17T12:06:17;1.88;;;0.60;;
31730;SDS011;18310;55.586;12.286;2023-08-17T12:09:21;2.08;;;0.77;;
31730;SDS011;18310;55.586;12.286;2023-08-17T12:12:25;2.40;;;0.93;;
31730;SDS011;18310;55.586;12.286;2023-08-17T12:15:32;5.35;;;0.85;;
31730;SDS011;18310;55.586;12.286;2023-08-17T12:18:37;2.58;;;1.02;;
31730;SDS011;18310;55.586;12.286;2023-08-17T12:21:40;2.70;;;0.90;;
31730;SDS011;18310;55.586;12.286;2023-08-17T12:24:44;2.45;;;0.85;;
31730;SDS011;18310;55.586;12.286;2023-08-17T12:27:47;2.87;;;1.00;;
31730;SDS011;18310;55.586;12.286;2023-08-17T12:31:01;2.55;;;0.95;;
31730;SDS011;18310;55.586;12.286;2023-08-17T12:34:05;1.83;;;0.77;;
31730;SDS011;18310;55.586;12.286;2023-08-17T12:37:08;2.50;;;0.90;;
31730;SDS011;18310;55.586;12.286;2023-08-17T12:40:12;4.00;;;0.82;;
31730;SDS011;18310;55.586;12.286;2023-08-17T12:43:15;1.38;;;0.65;;
31730;SDS011;18310;55.586;12.286;2023-08-17T12:46:19;1.67;;;0.70;;
31730;SDS011;18310;55.586;12.286;2023-08-17T12:49:23;2.35;;;0.80;;
31730;SDS011;18310;55.586;12.286;2023-08-17T12:52:27;4.03;;;0.70;;
31730;SDS011;18310;55.586;12.286;2023-08-17T12:58:56;2.70;;;0.77;;
31730;SDS011;18310;55.586;12.286;2023-08-17T13:02:04;1.88;;;0.80;;
31730;SDS011;18310;55.586;12.286;2023-08-17T13:05:07;1.87;;;0.50;;
31730;SDS011;18310;55.586;12.286;2023-08-17T13:08:10;2.13;;;0.47;;
31730;SDS011;18310;55.586;12.286;2023-08-17T13:11:13;1.27;;;0.43;;
31730;SDS011;18310;55.586;12.286;2023-08-17T13:14:17;2.45;;;0.60;;
31730;SDS011;18310;55.586;12.286;2023-08-17T13:17:21;3.72;;;0.75;;
31730;SDS011;18310;55.586;12.286;2023-08-17T13:20:24;1.65;;;0.77;;
31730;SDS011;18310;55.586;12.286;2023-08-17T13:23:27;5.97;;;0.90;;
31730;SDS011;18310;55.586;12.286;2023-08-17T13:26:31;3.67;;;0.75;;
31730;SDS011;18310;55.586;12.286;2023-08-17T13:29:36;3.28;;;0.90;;
31730;SDS011;18310;55.586;12.286;2023-08-17T13:32:40;3.50;;;0.98;;
31730;SDS011;18310;55.586;12.286;2023-08-17T13:35:48;6.07;;;1.02;;
31730;SDS011;18310;55.586;12.286;2023-08-17T13:38:52;5.28;;;0.93;;
31730;SDS011;18310;55.586;12.286;2023-08-17T13:41:55;2.22;;;0.63;;
31730;SDS011;18310;55.586;12.286;2023-08-17T13:45:00;1.90;;;0.80;;
31730;SDS011;18310;55.586;12.286;2023-08-17T13:48:03;4.60;;;0.88;;
31730;SDS011;18310;55.586;12.286;2023-08-17T13:51:07;1.80;;;0.70;;
31730;SDS011;18310;55.586;12.286;2023-08-17T13:54:10;3.25;;;0.65;;
31730;SDS011;18310;55.586;12.286;2023-08-17T13:57:13;3.53;;;0.43;;
31730;SDS011;18310;55.586;12.286;2023-08-17T14:00:17;4.53;;;0.70;;
31730;SDS011;18310;55.586;12.286;2023-08-17T14:03:20;1.45;;;0.40;;
31730;SDS011;18310;55.586;12.286;2023-08-17T14:06:24;1.17;;;0.45;;
31730;SDS011;18310;55.586;12.286;2023-08-17T14:09:27;1.73;;;0.50;;
31730;SDS011;18310;55.586;12.286;2023-08-17T14:12:30;1.83;;;0.55;;
31730;SDS011;18310;55.586;12.286;2023-08-17T14:15:34;3.92;;;0.80;;
31730;SDS011;18310;55.586;12.286;2023-08-17T14:18:37;2.92;;;0.65;;
31730;SDS011;18310;55.586;12.286;2023-08-17T14:21:40;1.15;;;0.40;;
31730;SDS011;18310;55.586;12.286;2023-08-17T14:24:43;1.15;;;0.47;;
31730;SDS011;18310;55.586;12.286;2023-08-17T14:27:46;4.75;;;0.60;;
31730;SDS011;18310;55.586;12.286;2023-08-17T14:30:51;1.90;;;0.60;;
31730;SDS011;18310;55.586;12.286;2023-08-17T14:33:54;2.50;;;0.80;;
31730;SDS011;18310;55.586;12.286;2023-08-17T14:36:57;2.63;;;0.70;;
31730;SDS011;18310;55.586;12.286;2023-08-17T14:40:00;2.65;;;0.73;;
31730;SDS011;18310;55.586;12.286;2023-08-17T14:43:03;4.50;;;0.63;;
31730;SDS011;18310;55.586;12.286;2023-08-17T14:46:07;2.10;;;0.63;;
31730;SDS011;18310;55.586;12.286;2023-08-17T14:49:16;2.50;;;0.70;;
31730;SDS011;18310;55.586;12.286;2023-08-17T14:52:18;2.40;;;0.90;;
31730;SDS011;18310;55.586;12.286;2023-08-17T14:55:21;1.83;;;0.60;;
31730;SDS011;18310;55.586;12.286;2023-08-17T14:58:25;2.80;;;0.80;;
31730;SDS011;18310;55.586;12.286;2023-08-17T15:01:29;3.53;;;1.10;;
31730;SDS011;18310;55.586;12.286;2023-08-17T15:04:32;4.90;;;0.90;;
31730;SDS011;18310;55.586;12.286;2023-08-17T15:07:39;3.47;;;0.70;;
31730;SDS011;18310;55.586;12.286;2023-08-17T15:10:42;2.30;;;0.73;;
31730;SDS011;18310;55.586;12.286;2023-08-17T15:13:45;5.27;;;0.80;;
31730;SDS011;18310;55.586;12.286;2023-08-17T15:16:50;2.17;;;0.77;;
31730;SDS011;18310;55.586;12.286;2023-08-17T15:19:53;2.25;;;0.70;;
31730;SDS011;18310;55.586;12.286;2023-08-17T15:22:56;2.00;;;0.60;;
31730;SDS011;18310;55.586;12.286;2023-08-17T15:25:59;4.83;;;1.00;;
31730;SDS011;18310;55.586;12.286;2023-08-17T15:29:02;2.17;;;0.60;;
31730;SDS011;18310;55.586;12.286;2023-08-17T15:32:07;2.88;;;0.63;;
31730;SDS011;18310;55.586;12.286;2023-08-17T15:35:11;2.53;;;0.90;;
31730;SDS011;18310;55.586;12.286;2023-08-17T15:38:15;4.68;;;0.82;;
31730;SDS011;18310;55.586;12.286;2023-08-17T15:41:18;3.58;;;0.90;;
31730;SDS011;18310;55.586;12.286;2023-08-17T15:44:21;5.15;;;1.25;;
31730;SDS011;18310;55.586;12.286;2023-08-17T15:47:25;4.73;;;1.00;;
31730;SDS011;18310;55.586;12.286;2023-08-17T15:50:29;3.10;;;1.13;;
31730;SDS011;18310;55.586;12.286;2023-08-17T15:53:32;2.63;;;0.60;;
31730;SDS011;18310;55.586;12.286;2023-08-17T15:56:35;2.47;;;0.75;;
31730;SDS011;18310;55.586;12.286;2023-08-17T15:59:38;1.57;;;0.70;;
31730;SDS011;18310;55.586;12.286;2023-08-17T16:02:43;2.63;;;0.70;;
31730;SDS011;18310;55.586;12.286;2023-08-17T16:05:47;2.70;;;0.80;;
31730;SDS011;18310;55.586;12.286;2023-08-17T16:08:50;2.83;;;0.82;;
31730;SDS011;18310;55.586;12.286;2023-08-17T16:11:54;2.53;;;0.85;;
31730;SDS011;18310;55.586;12.286;2023-08-17T16:14:57;2.80;;;1.08;;
31730;SDS011;18310;55.586;12.286;2023-08-17T16:18:01;1.43;;;0.80;;
31730;SDS011;18310;55.586;12.286;2023-08-17T16:21:04;3.20;;;0.80;;
31730;SDS011;18310;55.586;12.286;2023-08-17T16:24:15;1.83;;;0.52;;
31730;SDS011;18310;55.586;12.286;2023-08-17T16:27:18;4.32;;;1.00;;
31730;SDS011;18310;55.586;12.286;2023-08-17T16:30:21;2.70;;;1.02;;
31730;SDS011;18310;55.586;12.286;2023-08-17T16:33:25;5.27;;;0.77;;
31730;SDS011;18310;55.586;12.286;2023-08-17T16:36:28;2.05;;;0.80;;
31730;SDS011;18310;55.586;12.286;2023-08-17T16:39:37;4.72;;;1.10;;
31730;SDS011;18310;55.586;12.286;2023-08-17T16:42:40;3.88;;;1.17;;
31730;SDS011;18310;55.586;12.286;2023-08-17T16:45:43;2.33;;;0.82;;
31730;SDS011;18310;55.586;12.286;2023-08-17T16:48:47;8.70;;;1.23;;
31730;SDS011;18310;55.586;12.286;2023-08-17T16:51:50;5.00;;;1.00;;
31730;SDS011;18310;55.586;12.286;2023-08-17T16:54:53;3.85;;;1.10;;
31730;SDS011;18310;55.586;12.286;2023-08-17T16:57:56;4.87;;;1.30;;
31730;SDS011;18310;55.586;12.286;2023-08-17T17:03:09;3.92;;;1.33;;
31730;SDS011;18310;55.586;12.286;2023-08-17T17:06:12;5.35;;;1.05;;
31730;SDS011;18310;55.586;12.286;2023-08-17T17:09:14;3.97;;;1.00;;
31730;SDS011;18310;55.586;12.286;2023-08-17T17:12:18;9.17;;;1.20;;
31730;SDS011;18310;55.586;12.286;2023-08-17T17:15:21;2.30;;;0.68;;
31730;SDS011;18310;55.586;12.286;2023-08-17T17:18:25;2.53;;;0.90;;
31730;SDS011;18310;55.586;12.286;2023-08-17T17:21:28;1.90;;;0.80;;
31730;SDS011;18310;55.586;12.286;2023-08-17T17:24:31;2.92;;;0.82;;
31730;SDS011;18310;55.586;12.286;2023-08-17T17:27:34;5.45;;;1.10;;
31730;SDS011;18310;55.586;12.286;2023-08-17T17:30:37;3.00;;;1.10;;
31730;SDS011;18310;55.586;12.286;2023-08-17T17:33:42;1.95;;;0.77;;
31730;SDS011;18310;55.586;12.286;2023-08-17T17:36:45;3.13;;;0.98;;
31730;SDS011;18310;55.586;12.286;2023-08-17T17:39:49;5.10;;;1.20;;
31730;SDS011;18310;55.586;12.286;2023-08-17T17:42:52;2.30;;;0.60;;
31730;SDS011;18310;55.586;12.286;2023-08-17T17:45:55;8.93;;;1.17;;
31730;SDS011;18310;55.586;12.286;2023-08-17T17:48:59;2.67;;;0.95;;
31730;SDS011;18310;55.586;12.286;2023-08-17T17:52:02;5.43;;;0.90;;
31730;SDS011;18310;55.586;12.286;2023-08-17T17:55:06;6.10;;;1.13;;
31730;SDS011;18310;55.586;12.286;2023-08-17T17:58:10;3.50;;;1.17;;
31730;SDS011;18310;55.586;12.286;2023-08-17T18:01:13;7.78;;;1.20;;
31730;SDS011;18310;55.586;12.286;2023-08-17T18:04:18;2.90;;;1.42;;
31730;SDS011;18310;55.586;12.286;2023-08-17T18:07:21;9.52;;;1.48;;
31730;SDS011;18310;55.586;12.286;2023-08-17T18:10:24;22.00;;;12.73;;
31730;SDS011;18310;55.586;12.286;2023-08-17T18:13:27;13.55;;;4.75;;
31730;SDS011;18310;55.586;12.286;2023-08-17T18:16:30;14.90;;;10.60;;
31730;SDS011;18310;55.586;12.286;2023-08-17T18:19:55;15.90;;;10.35;;
31730;SDS011;18310;55.586;12.286;2023-08-17T18:22:58;23.02;;;16.67;;
31730;SDS011;18310;55.586;12.286;2023-08-17T18:26:01;8.75;;;5.50;;
31730;SDS011;18310;55.586;12.286;2023-08-17T18:29:04;22.87;;;15.17;;
31730;SDS011;18310;55.586;12.286;2023-08-17T18:32:07;12.07;;;5.65;;
31730;SDS011;18310;55.586;12.286;2023-08-17T18:35:12;16.90;;;7.87;;
31730;SDS011;18310;55.586;12.286;2023-08-17T18:38:15;9.18;;;3.58;;
31730;SDS011;18310;55.586;12.286;2023-08-17T18:41:18;6.93;;;3.88;;